sensor_id;sensor_type;location;lat;lon;timestamp;pressure;altitude;pressure_sealevel;temperature;humidity
26436;BME280;15351;52.408;16.826;2023-02-19T00:00:16;100573.08;;;6.89;78.41
26436;BME280;15351;52.408;16.826;2023-02-19T00:03:04;100575.42;;;6.94;78.62
26436;BME280;15351;52.408;16.826;2023-02-19T00:05:34;100572.98;;;6.99;78.58
26436;BME280;15351;52.408;16.826;2023-02-19T00:08:05;100569.92;;;7.01;78.27
26436;BME280;15351;52.408;16.826;2023-02-19T00:10:34;100568.83;;;6.98;78.15
26436;BME280;15351;52.408;16.826;2023-02-19T00:13:11;100565.83;;;6.97;78.33
26436;BME280;15351;52.408;16.826;2023-02-19T00:15:59;100567.61;;;6.97;78.32
26436;BME280;15351;52.408;16.826;2023-02-19T00:18:32;100563.78;;;7.00;78.14
26436;BME280;15351;52.408;16.826;2023-02-19T00:21:04;100563.00;;;7.02;78.09
26436;BME280;15351;52.408;16.826;2023-02-19T00:23:40;100566.67;;;7.01;77.90
26436;BME280;15351;52.408;16.826;2023-02-19T00:26:12;100564.13;;;7.01;78.16
26436;BME280;15351;52.408;16.826;2023-02-19T00:28:41;100566.28;;;7.03;78.23
26436;BME280;15351;52.408;16.826;2023-02-19T00:31:52;100567.63;;;7.04;77.92
26436;BME280;15351;52.408;16.826;2023-02-19T00:34:26;100569.67;;;7.01;77.74
26436;BME280;15351;52.408;16.826;2023-02-19T00:37:05;100570.11;;;6.99;77.82
26436;BME280;15351;52.408;16.826;2023-02-19T00:39:36;100566.17;;;6.94;77.77
26436;BME280;15351;52.408;16.826;2023-02-19T00:42:04;100569.10;;;6.89;77.73
26436;BME280;15351;52.408;16.826;2023-02-19T00:44:33;100568.63;;;6.85;77.87
26436;BME280;15351;52.408;16.826;2023-02-19T00:47:01;100565.13;;;6.86;77.83
26436;BME280;15351;52.408;16.826;2023-02-19T00:49:40;100567.20;;;6.84;77.76
26436;BME280;15351;52.408;16.826;2023-02-19T00:52:15;100560.61;;;6.82;77.99
26436;BME280;15351;52.408;16.826;2023-02-19T00:54:46;100559.96;;;6.84;78.05
26436;BME280;15351;52.408;16.826;2023-02-19T00:57:14;100562.77;;;6.86;77.87
26436;BME280;15351;52.408;16.826;2023-02-19T00:59:46;100565.45;;;6.80;77.64
26436;BME280;15351;52.408;16.826;2023-02-19T01:02:16;100566.94;;;6.78;77.81
26436;BME280;15351;52.408;16.826;2023-02-19T01:04:46;100568.31;;;6.78;77.98
26436;BME280;15351;52.408;16.826;2023-02-19T01:07:15;100566.91;;;6.84;78.02
26436;BME280;15351;52.408;16.826;2023-02-19T01:09:45;100569.36;;;6.90;77.97
26436;BME280;15351;52.408;16.826;2023-02-19T01:12:22;100568.42;;;6.89;77.84
26436;BME280;15351;52.408;16.826;2023-02-19T01:14:53;100557.15;;;6.84;77.91
26436;BME280;15351;52.408;16.826;2023-02-19T01:17:20;100546.66;;;6.83;77.94
26436;BME280;15351;52.408;16.826;2023-02-19T01:19:49;100542.86;;;6.79;77.91
26436;BME280;15351;52.408;16.826;2023-02-19T01:22:20;100542.99;;;6.76;77.69
26436;BME280;15351;52.408;16.826;2023-02-19T01:24:54;100541.35;;;6.71;77.49
26436;BME280;15351;52.408;16.826;2023-02-19T01:27:22;100539.30;;;6.59;77.66
26436;BME280;15351;52.408;16.826;2023-02-19T01:30:00;100539.17;;;6.60;77.98
26436;BME280;15351;52.408;16.826;2023-02-19T01:32:27;100534.04;;;6.65;78.16
26436;BME280;15351;52.408;16.826;2023-02-19T01:34:55;100525.23;;;6.71;78.16
26436;BME280;15351;52.408;16.826;2023-02-19T01:37:23;100524.35;;;6.73;77.94
26436;BME280;15351;52.408;16.826;2023-02-19T01:39:53;100531.55;;;6.68;77.95
26436;BME280;15351;52.408;16.826;2023-02-19T01:42:26;100533.41;;;6.66;78.19
26436;BME280;15351;52.408;16.826;2023-02-19T01:45:29;100530.36;;;6.72;78.24
26436;BME280;15351;52.408;16.826;2023-02-19T01:48:20;100529.16;;;6.77;78.09
26436;BME280;15351;52.408;16.826;2023-02-19T01:51:02;100527.52;;;6.80;78.10
26436;BME280;15351;52.408;16.826;2023-02-19T01:53:35;100524.05;;;6.81;78.20
26436;BME280;15351;52.408;16.826;2023-02-19T01:56:04;100522.54;;;6.83;78.28
26436;BME280;15351;52.408;16.826;2023-02-19T01:58:36;100521.27;;;6.85;78.09
26436;BME280;15351;52.408;16.826;2023-02-19T02:01:06;100512.09;;;6.84;77.86
26436;BME280;15351;52.408;16.826;2023-02-19T02:03:42;100508.36;;;6.84;77.86
26436;BME280;15351;52.408;16.826;2023-02-19T02:06:33;100504.37;;;6.83;77.79
26436;BME280;15351;52.408;16.826;2023-02-19T02:09:04;100501.55;;;6.79;77.75
26436;BME280;15351;52.408;16.826;2023-02-19T02:12:06;100501.10;;;6.78;77.89
26436;BME280;15351;52.408;16.826;2023-02-19T02:14:47;100498.52;;;6.81;77.90
26436;BME280;15351;52.408;16.826;2023-02-19T02:17:27;100491.47;;;6.83;77.97
26436;BME280;15351;52.408;16.826;2023-02-19T02:20:39;100485.01;;;6.86;77.80
26436;BME280;15351;52.408;16.826;2023-02-19T02:27:50;100480.17;;;6.66;77.63
26436;BME280;15351;52.408;16.826;2023-02-19T02:30:19;100471.88;;;6.65;77.93
26436;BME280;15351;52.408;16.826;2023-02-19T02:33:09;100475.84;;;6.65;77.98
26436;BME280;15351;52.408;16.826;2023-02-19T02:36:34;100470.35;;;6.61;77.83
26436;BME280;15351;52.408;16.826;2023-02-19T02:39:22;100466.78;;;6.59;77.95
26436;BME280;15351;52.408;16.826;2023-02-19T02:42:01;100464.16;;;6.62;78.25
26436;BME280;15351;52.408;16.826;2023-02-19T02:45:10;100460.34;;;6.66;78.33
26436;BME280;15351;52.408;16.826;2023-02-19T02:53:52;100454.09;;;6.77;77.94
26436;BME280;15351;52.408;16.826;2023-02-19T02:56:42;100454.07;;;6.82;78.06
26436;BME280;15351;52.408;16.826;2023-02-19T02:59:17;100446.14;;;6.84;77.87
26436;BME280;15351;52.408;16.826;2023-02-19T03:08:26;100444.18;;;6.83;78.05
26436;BME280;15351;52.408;16.826;2023-02-19T03:11:12;100439.97;;;6.80;78.05
26436;BME280;15351;52.408;16.826;2023-02-19T03:14:10;100444.27;;;6.80;77.87
26436;BME280;15351;52.408;16.826;2023-02-19T03:17:12;100438.36;;;6.80;78.15
26436;BME280;15351;52.408;16.826;2023-02-19T03:20:05;100438.96;;;6.86;78.20
26436;BME280;15351;52.408;16.826;2023-02-19T03:22:37;100433.41;;;6.90;77.93
26436;BME280;15351;52.408;16.826;2023-02-19T03:25:16;100429.79;;;6.85;77.66
26436;BME280;15351;52.408;16.826;2023-02-19T03:28:34;100420.02;;;6.80;77.76
26436;BME280;15351;52.408;16.826;2023-02-19T03:31:46;100411.74;;;6.78;78.01
26436;BME280;15351;52.408;16.826;2023-02-19T03:35:04;100408.62;;;6.81;78.04
26436;BME280;15351;52.408;16.826;2023-02-19T03:37:17;100409.09;;;6.84;78.06
26436;BME280;15351;52.408;16.826;2023-02-19T03:40:09;100411.55;;;6.78;77.88
26436;BME280;15351;52.408;16.826;2023-02-19T03:43:14;100410.48;;;6.68;77.94
26436;BME280;15351;52.408;16.826;2023-02-19T03:46:12;100412.56;;;6.68;78.36
26436;BME280;15351;52.408;16.826;2023-02-19T03:48:54;100402.53;;;6.71;78.42
26436;BME280;15351;52.408;16.826;2023-02-19T03:56:34;100401.52;;;6.81;78.60
26436;BME280;15351;52.408;16.826;2023-02-19T03:59:42;100398.48;;;6.84;78.40
26436;BME280;15351;52.408;16.826;2023-02-19T04:02:40;100393.75;;;6.78;78.18
26436;BME280;15351;52.408;16.826;2023-02-19T04:05:17;100392.92;;;6.75;78.32
26436;BME280;15351;52.408;16.826;2023-02-19T04:07:59;100405.27;;;6.77;78.38
26436;BME280;15351;52.408;16.826;2023-02-19T04:10:34;100409.80;;;6.78;78.30
26436;BME280;15351;52.408;16.826;2023-02-19T04:13:25;100414.90;;;6.76;78.20
26436;BME280;15351;52.408;16.826;2023-02-19T04:15:57;100420.67;;;6.75;78.38
26436;BME280;15351;52.408;16.826;2023-02-19T04:18:58;100424.90;;;6.81;78.51
26436;BME280;15351;52.408;16.826;2023-02-19T04:21:49;100422.36;;;6.88;78.20
26436;BME280;15351;52.408;16.826;2023-02-19T04:24:41;100427.10;;;6.89;77.92
26436;BME280;15351;52.408;16.826;2023-02-19T04:27:17;100433.17;;;6.85;77.88
26436;BME280;15351;52.408;16.826;2023-02-19T04:29:45;100439.40;;;6.84;77.93
26436;BME280;15351;52.408;16.826;2023-02-19T04:32:21;100443.90;;;6.78;77.95
26436;BME280;15351;52.408;16.826;2023-02-19T04:34:50;100442.40;;;6.79;77.97
26436;BME280;15351;52.408;16.826;2023-02-19T04:37:26;100441.23;;;6.82;77.91
26436;BME280;15351;52.408;16.826;2023-02-19T04:40:27;100436.45;;;6.84;77.87
26436;BME280;15351;52.408;16.826;2023-02-19T04:42:56;100420.16;;;6.86;78.00
26436;BME280;15351;52.408;16.826;2023-02-19T04:45:28;100423.05;;;6.86;77.62
26436;BME280;15351;52.408;16.826;2023-02-19T04:48:04;100428.33;;;6.82;77.63
26436;BME280;15351;52.408;16.826;2023-02-19T04:50:40;100439.10;;;6.76;77.74
26436;BME280;15351;52.408;16.826;2023-02-19T04:53:09;100443.30;;;6.77;77.80
26436;BME280;15351;52.408;16.826;2023-02-19T04:55:37;100444.39;;;6.77;77.88
26436;BME280;15351;52.408;16.826;2023-02-19T04:58:15;100450.80;;;6.77;77.95
26436;BME280;15351;52.408;16.826;2023-02-19T05:00:43;100449.85;;;6.80;77.86
26436;BME280;15351;52.408;16.826;2023-02-19T05:03:15;100452.00;;;6.76;77.81
26436;BME280;15351;52.408;16.826;2023-02-19T05:05:47;100452.45;;;6.77;77.87
26436;BME280;15351;52.408;16.826;2023-02-19T05:08:15;100452.65;;;6.75;77.70
26436;BME280;15351;52.408;16.826;2023-02-19T05:10:44;100446.46;;;6.73;77.73
26436;BME280;15351;52.408;16.826;2023-02-19T05:13:13;100449.27;;;6.75;77.59
26436;BME280;15351;52.408;16.826;2023-02-19T05:16:04;100442.90;;;6.74;77.61
26436;BME280;15351;52.408;16.826;2023-02-19T05:18:32;100444.14;;;6.74;77.60
26436;BME280;15351;52.408;16.826;2023-02-19T05:21:03;100444.96;;;6.71;77.72
26436;BME280;15351;52.408;16.826;2023-02-19T05:23:33;100444.22;;;6.68;77.61
26436;BME280;15351;52.408;16.826;2023-02-19T05:26:16;100444.85;;;6.64;77.49
26436;BME280;15351;52.408;16.826;2023-02-19T05:28:46;100448.58;;;6.64;77.61
26436;BME280;15351;52.408;16.826;2023-02-19T05:31:15;100447.13;;;6.68;77.57
26436;BME280;15351;52.408;16.826;2023-02-19T05:33:44;100451.24;;;6.68;77.53
26436;BME280;15351;52.408;16.826;2023-02-19T05:36:20;100446.08;;;6.71;77.55
26436;BME280;15351;52.408;16.826;2023-02-19T05:39:11;100451.48;;;6.72;77.39
26436;BME280;15351;52.408;16.826;2023-02-19T05:41:39;100452.08;;;6.74;77.39
26436;BME280;15351;52.408;16.826;2023-02-19T05:44:09;100451.29;;;6.76;77.34
26436;BME280;15351;52.408;16.826;2023-02-19T05:46:53;100447.77;;;6.70;77.05
26436;BME280;15351;52.408;16.826;2023-02-19T05:49:21;100451.42;;;6.68;77.03
26436;BME280;15351;52.408;16.826;2023-02-19T05:51:51;100452.06;;;6.65;77.08
26436;BME280;15351;52.408;16.826;2023-02-19T05:54:27;100461.86;;;6.63;76.98
26436;BME280;15351;52.408;16.826;2023-02-19T05:56:57;100464.77;;;6.54;77.00
26436;BME280;15351;52.408;16.826;2023-02-19T05:59:32;100462.58;;;6.51;77.24
26436;BME280;15351;52.408;16.826;2023-02-19T06:02:02;100459.67;;;6.52;77.14
26436;BME280;15351;52.408;16.826;2023-02-19T06:04:33;100462.12;;;6.48;77.14
26436;BME280;15351;52.408;16.826;2023-02-19T06:07:24;100458.77;;;6.50;77.19
26436;BME280;15351;52.408;16.826;2023-02-19T06:10:30;100462.04;;;6.48;77.24
26436;BME280;15351;52.408;16.826;2023-02-19T06:13:05;100455.66;;;6.45;77.19
26436;BME280;15351;52.408;16.826;2023-02-19T06:15:48;100451.33;;;6.44;77.33
26436;BME280;15351;52.408;16.826;2023-02-19T06:18:22;100453.21;;;6.45;77.35
26436;BME280;15351;52.408;16.826;2023-02-19T06:20:49;100461.51;;;6.44;77.47
26436;BME280;15351;52.408;16.826;2023-02-19T06:23:20;100461.30;;;6.48;77.63
26436;BME280;15351;52.408;16.826;2023-02-19T06:29:16;100470.09;;;6.46;77.32
26436;BME280;15351;52.408;16.826;2023-02-19T06:31:52;100476.28;;;6.43;77.28
26436;BME280;15351;52.408;16.826;2023-02-19T06:34:21;100482.67;;;6.39;77.33
26436;BME280;15351;52.408;16.826;2023-02-19T06:36:52;100485.64;;;6.38;77.45
26436;BME280;15351;52.408;16.826;2023-02-19T06:39:24;100485.42;;;6.38;77.41
26436;BME280;15351;52.408;16.826;2023-02-19T06:42:19;100488.54;;;6.39;77.53
26436;BME280;15351;52.408;16.826;2023-02-19T06:44:47;100496.08;;;6.43;77.57
26436;BME280;15351;52.408;16.826;2023-02-19T06:47:24;100496.98;;;6.45;77.53
26436;BME280;15351;52.408;16.826;2023-02-19T06:50:25;100504.83;;;6.39;77.33
26436;BME280;15351;52.408;16.826;2023-02-19T06:52:56;100505.75;;;6.39;77.46
26436;BME280;15351;52.408;16.826;2023-02-19T06:55:27;100503.60;;;6.39;77.51
26436;BME280;15351;52.408;16.826;2023-02-19T06:57:57;100507.52;;;6.43;77.62
26436;BME280;15351;52.408;16.826;2023-02-19T07:00:25;100509.80;;;6.45;77.32
26436;BME280;15351;52.408;16.826;2023-02-19T07:03:09;100506.39;;;6.45;77.31
26436;BME280;15351;52.408;16.826;2023-02-19T07:05:42;100501.11;;;6.46;77.44
26436;BME280;15351;52.408;16.826;2023-02-19T07:08:18;100506.70;;;6.49;77.28
26436;BME280;15351;52.408;16.826;2023-02-19T07:10:56;100504.71;;;6.51;77.41
26436;BME280;15351;52.408;16.826;2023-02-19T07:13:47;100503.93;;;6.54;77.30
26436;BME280;15351;52.408;16.826;2023-02-19T07:16:21;100506.70;;;6.56;77.12
26436;BME280;15351;52.408;16.826;2023-02-19T07:18:51;100505.42;;;6.59;77.21
26436;BME280;15351;52.408;16.826;2023-02-19T07:21:21;100511.23;;;6.58;77.22
26436;BME280;15351;52.408;16.826;2023-02-19T07:23:49;100509.46;;;6.54;77.13
26436;BME280;15351;52.408;16.826;2023-02-19T07:26:18;100513.75;;;6.54;77.31
26436;BME280;15351;52.408;16.826;2023-02-19T07:28:49;100515.86;;;6.50;77.07
26436;BME280;15351;52.408;16.826;2023-02-19T07:31:20;100518.05;;;6.50;77.27
26436;BME280;15351;52.408;16.826;2023-02-19T07:33:50;100520.03;;;6.50;77.32
26436;BME280;15351;52.408;16.826;2023-02-19T07:36:23;100523.38;;;6.60;77.47
26436;BME280;15351;52.408;16.826;2023-02-19T07:38:54;100523.27;;;6.67;77.11
26436;BME280;15351;52.408;16.826;2023-02-19T07:41:24;100525.69;;;6.68;76.94
26436;BME280;15351;52.408;16.826;2023-02-19T07:43:54;100525.54;;;6.70;77.14
26436;BME280;15351;52.408;16.826;2023-02-19T07:46:24;100529.28;;;6.73;77.07
26436;BME280;15351;52.408;16.826;2023-02-19T07:49:08;100526.95;;;6.81;77.13
26436;BME280;15351;52.408;16.826;2023-02-19T07:51:36;100526.81;;;6.85;76.81
26436;BME280;15351;52.408;16.826;2023-02-19T07:54:05;100534.11;;;6.82;76.87
26436;BME280;15351;52.408;16.826;2023-02-19T07:56:36;100538.11;;;6.80;76.92
26436;BME280;15351;52.408;16.826;2023-02-19T07:59:10;100537.27;;;6.79;77.03
26436;BME280;15351;52.408;16.826;2023-02-19T08:02:03;100538.78;;;6.85;76.87
26436;BME280;15351;52.408;16.826;2023-02-19T08:04:51;100533.56;;;6.94;76.52
26436;BME280;15351;52.408;16.826;2023-02-19T08:07:18;100541.84;;;6.94;76.39
26436;BME280;15351;52.408;16.826;2023-02-19T08:09:46;100539.17;;;6.95;76.63
26436;BME280;15351;52.408;16.826;2023-02-19T08:12:36;100545.70;;;7.03;76.62
26436;BME280;15351;52.408;16.826;2023-02-19T08:15:23;100547.47;;;7.17;76.34
26436;BME280;15351;52.408;16.826;2023-02-19T08:17:52;100555.54;;;7.29;76.12
26436;BME280;15351;52.408;16.826;2023-02-19T08:20:20;100559.23;;;7.28;76.03
26436;BME280;15351;52.408;16.826;2023-02-19T08:22:54;100560.84;;;7.35;75.94
26436;BME280;15351;52.408;16.826;2023-02-19T08:25:24;100564.40;;;7.35;75.33
26436;BME280;15351;52.408;16.826;2023-02-19T08:27:59;100567.86;;;7.34;75.39
26436;BME280;15351;52.408;16.826;2023-02-19T08:30:29;100572.36;;;7.36;75.52
26436;BME280;15351;52.408;16.826;2023-02-19T08:32:59;100577.42;;;7.36;75.75
26436;BME280;15351;52.408;16.826;2023-02-19T08:35:48;100581.27;;;7.42;75.89
26436;BME280;15351;52.408;16.826;2023-02-19T08:38:22;100581.35;;;7.60;75.57
26436;BME280;15351;52.408;16.826;2023-02-19T08:40:49;100583.31;;;7.75;75.29
26436;BME280;15351;52.408;16.826;2023-02-19T08:43:20;100581.25;;;7.88;75.09
26436;BME280;15351;52.408;16.826;2023-02-19T08:48:41;100591.58;;;8.33;73.91
26436;BME280;15351;52.408;16.826;2023-02-19T08:51:20;100593.42;;;8.37;73.17
26436;BME280;15351;52.408;16.826;2023-02-19T08:53:49;100598.41;;;8.29;72.85
26436;BME280;15351;52.408;16.826;2023-02-19T08:56:17;100602.30;;;8.24;72.34
26436;BME280;15351;52.408;16.826;2023-02-19T08:58:44;100607.26;;;8.17;72.42
26436;BME280;15351;52.408;16.826;2023-02-19T09:01:27;100610.63;;;8.09;72.35
26436;BME280;15351;52.408;16.826;2023-02-19T09:07:28;100619.38;;;8.02;72.41
26436;BME280;15351;52.408;16.826;2023-02-19T09:09:55;100618.23;;;8.01;72.37
26436;BME280;15351;52.408;16.826;2023-02-19T09:12:23;100619.94;;;7.94;72.47
26436;BME280;15351;52.408;16.826;2023-02-19T09:15:11;100623.98;;;7.95;72.46
26436;BME280;15351;52.408;16.826;2023-02-19T09:17:52;100631.77;;;7.90;72.04
26436;BME280;15351;52.408;16.826;2023-02-19T09:20:21;100634.27;;;7.84;71.86
26436;BME280;15351;52.408;16.826;2023-02-19T09:22:56;100638.84;;;7.78;71.61
26436;BME280;15351;52.408;16.826;2023-02-19T09:25:57;100645.04;;;7.69;71.57
26436;BME280;15351;52.408;16.826;2023-02-19T09:28:57;100648.16;;;7.68;71.63
26436;BME280;15351;52.408;16.826;2023-02-19T09:31:26;100651.77;;;7.78;71.39
26436;BME280;15351;52.408;16.826;2023-02-19T09:33:53;100661.15;;;7.88;70.85
26436;BME280;15351;52.408;16.826;2023-02-19T09:36:22;100657.80;;;7.85;70.33
26436;BME280;15351;52.408;16.826;2023-02-19T09:38:55;100668.35;;;7.87;69.82
26436;BME280;15351;52.408;16.826;2023-02-19T09:42:10;100669.69;;;7.83;69.56
26436;BME280;15351;52.408;16.826;2023-02-19T09:48:48;100677.19;;;7.76;69.33
26436;BME280;15351;52.408;16.826;2023-02-19T09:51:20;100683.63;;;7.85;69.12
26436;BME280;15351;52.408;16.826;2023-02-19T09:54:30;100688.02;;;8.01;68.97
26436;BME280;15351;52.408;16.826;2023-02-19T09:57:13;100692.63;;;8.15;68.93
26436;BME280;15351;52.408;16.826;2023-02-19T10:00:06;100697.91;;;8.33;69.22
26436;BME280;15351;52.408;16.826;2023-02-19T10:03:06;100701.34;;;8.45;68.59
26436;BME280;15351;52.408;16.826;2023-02-19T10:06:09;100704.96;;;8.45;67.64
26436;BME280;15351;52.408;16.826;2023-02-19T10:09:31;100708.70;;;8.38;66.82
26436;BME280;15351;52.408;16.826;2023-02-19T10:12:12;100713.67;;;8.30;66.21
26436;BME280;15351;52.408;16.826;2023-02-19T10:15:37;100719.98;;;8.16;66.05
26436;BME280;15351;52.408;16.826;2023-02-19T10:18:11;100720.44;;;8.05;66.40
26436;BME280;15351;52.408;16.826;2023-02-19T10:20:59;100729.66;;;8.00;66.43
26436;BME280;15351;52.408;16.826;2023-02-19T10:23:55;100734.13;;;8.11;67.04
26436;BME280;15351;52.408;16.826;2023-02-19T10:26:28;100740.36;;;8.30;66.97
26436;BME280;15351;52.408;16.826;2023-02-19T10:30:22;100743.90;;;8.32;66.06
26436;BME280;15351;52.408;16.826;2023-02-19T10:33:14;100747.73;;;8.23;65.32
26436;BME280;15351;52.408;16.826;2023-02-19T10:36:14;100758.80;;;8.15;65.36
26436;BME280;15351;52.408;16.826;2023-02-19T10:41:53;100763.38;;;8.11;65.65
26436;BME280;15351;52.408;16.826;2023-02-19T10:44:59;100766.23;;;8.11;65.90
26436;BME280;15351;52.408;16.826;2023-02-19T10:47:55;100765.71;;;8.10;66.11
26436;BME280;15351;52.408;16.826;2023-02-19T10:50:43;100764.33;;;8.14;65.84
26436;BME280;15351;52.408;16.826;2023-02-19T10:53:44;100762.52;;;8.12;64.89
26436;BME280;15351;52.408;16.826;2023-02-19T10:56:25;100764.19;;;8.04;64.73
26436;BME280;15351;52.408;16.826;2023-02-19T10:59:32;100767.65;;;8.00;64.40
26436;BME280;15351;52.408;16.826;2023-02-19T11:02:01;100763.01;;;7.98;64.08
26436;BME280;15351;52.408;16.826;2023-02-19T11:04:31;100763.40;;;8.05;64.14
26436;BME280;15351;52.408;16.826;2023-02-19T11:07:16;100762.55;;;8.27;64.16
26436;BME280;15351;52.408;16.826;2023-02-19T11:09:53;100762.01;;;8.51;63.43
26436;BME280;15351;52.408;16.826;2023-02-19T11:12:28;100759.21;;;8.69;62.50
26436;BME280;15351;52.408;16.826;2023-02-19T11:15:20;100765.38;;;8.80;61.80
26436;BME280;15351;52.408;16.826;2023-02-19T11:17:55;100766.73;;;8.83;61.40
26436;BME280;15351;52.408;16.826;2023-02-19T11:20:24;100772.24;;;8.78;61.13
26436;BME280;15351;52.408;16.826;2023-02-19T11:23:00;100779.27;;;8.74;61.06
26436;BME280;15351;52.408;16.826;2023-02-19T11:25:46;100780.88;;;8.66;60.74
26436;BME280;15351;52.408;16.826;2023-02-19T11:28:39;100783.66;;;8.52;60.49
26436;BME280;15351;52.408;16.826;2023-02-19T11:31:32;100795.30;;;8.43;61.02
26436;BME280;15351;52.408;16.826;2023-02-19T11:34:24;100803.39;;;8.43;61.09
26436;BME280;15351;52.408;16.826;2023-02-19T11:37:16;100802.05;;;8.43;61.23
26436;BME280;15351;52.408;16.826;2023-02-19T11:39:46;100806.95;;;8.36;61.09
26436;BME280;15351;52.408;16.826;2023-02-19T11:42:42;100810.54;;;8.29;61.11
26436;BME280;15351;52.408;16.826;2023-02-19T11:45:36;100812.13;;;8.36;61.31
26436;BME280;15351;52.408;16.826;2023-02-19T11:48:35;100813.77;;;8.39;61.40
26436;BME280;15351;52.408;16.826;2023-02-19T11:51:32;100812.18;;;8.42;61.57
26436;BME280;15351;52.408;16.826;2023-02-19T11:57:15;100810.96;;;8.37;61.15
26436;BME280;15351;52.408;16.826;2023-02-19T12:00:29;100819.29;;;8.29;60.85
26436;BME280;15351;52.408;16.826;2023-02-19T12:03:18;100819.23;;;8.30;60.93
26436;BME280;15351;52.408;16.826;2023-02-19T12:06:11;100821.16;;;8.35;60.86
26436;BME280;15351;52.408;16.826;2023-02-19T12:12:08;100818.77;;;8.69;59.93
26436;BME280;15351;52.408;16.826;2023-02-19T12:15:01;100823.06;;;8.67;59.56
26436;BME280;15351;52.408;16.826;2023-02-19T12:24:50;100837.08;;;8.58;58.72
26436;BME280;15351;52.408;16.826;2023-02-19T12:30:39;100831.45;;;8.69;58.44
26436;BME280;15351;52.408;16.826;2023-02-19T12:33:50;100834.55;;;8.77;58.17
26436;BME280;15351;52.408;16.826;2023-02-19T12:37:01;100841.85;;;8.80;57.54
26436;BME280;15351;52.408;16.826;2023-02-19T12:39:41;100849.78;;;8.74;57.12
26436;BME280;15351;52.408;16.826;2023-02-19T12:42:46;100849.15;;;8.75;57.11
26436;BME280;15351;52.408;16.826;2023-02-19T12:45:41;100851.19;;;8.88;57.21
26436;BME280;15351;52.408;16.826;2023-02-19T12:48:19;100856.35;;;9.01;57.15
26436;BME280;15351;52.408;16.826;2023-02-19T12:51:04;100863.45;;;9.12;56.96
26436;BME280;15351;52.408;16.826;2023-02-19T12:53:59;100863.19;;;9.22;56.89
26436;BME280;15351;52.408;16.826;2023-02-19T12:57:02;100862.78;;;9.29;56.35
26436;BME280;15351;52.408;16.826;2023-02-19T13:00:11;100864.83;;;9.38;55.71
26436;BME280;15351;52.408;16.826;2023-02-19T13:05:43;100863.79;;;9.63;55.06
26436;BME280;15351;52.408;16.826;2023-02-19T13:08:25;100861.21;;;9.75;54.54
26436;BME280;15351;52.408;16.826;2023-02-19T13:11:19;100877.80;;;9.85;54.20
26436;BME280;15351;52.408;16.826;2023-02-19T13:14:44;100880.73;;;9.84;53.75
26436;BME280;15351;52.408;16.826;2023-02-19T13:16:53;100884.24;;;9.80;53.81
26436;BME280;15351;52.408;16.826;2023-02-19T13:19:25;100885.16;;;9.65;53.68
26436;BME280;15351;52.408;16.826;2023-02-19T13:22:26;100890.19;;;9.56;53.77
26436;BME280;15351;52.408;16.826;2023-02-19T13:25:21;100885.31;;;9.57;53.78
26436;BME280;15351;52.408;16.826;2023-02-19T13:28:01;100882.56;;;9.59;53.53
26436;BME280;15351;52.408;16.826;2023-02-19T13:31:05;100877.48;;;9.59;53.75
26436;BME280;15351;52.408;16.826;2023-02-19T13:36:52;100868.67;;;9.72;53.66
26436;BME280;15351;52.408;16.826;2023-02-19T13:39:30;100868.83;;;9.76;53.40
26436;BME280;15351;52.408;16.826;2023-02-19T13:41:57;100871.97;;;9.79;52.86
26436;BME280;15351;52.408;16.826;2023-02-19T13:44:31;100875.06;;;9.78;52.82
26436;BME280;15351;52.408;16.826;2023-02-19T13:50:22;100886.94;;;9.75;52.34
26436;BME280;15351;52.408;16.826;2023-02-19T14:06:09;100907.02;;;9.40;50.93
26436;BME280;15351;52.408;16.826;2023-02-19T14:08:56;100915.11;;;9.35;50.42
26436;BME280;15351;52.408;16.826;2023-02-19T14:14:50;100921.34;;;9.30;50.93
26436;BME280;15351;52.408;16.826;2023-02-19T14:20:47;100927.40;;;9.30;51.22
26436;BME280;15351;52.408;16.826;2023-02-19T14:23:07;100926.54;;;9.27;51.02
26436;BME280;15351;52.408;16.826;2023-02-19T14:25:52;100928.76;;;9.21;50.93
26436;BME280;15351;52.408;16.826;2023-02-19T14:28:34;100936.52;;;9.15;51.00
26436;BME280;15351;52.408;16.826;2023-02-19T14:31:42;100949.52;;;9.09;50.44
26436;BME280;15351;52.408;16.826;2023-02-19T14:34:16;100943.81;;;9.03;49.96
26436;BME280;15351;52.408;16.826;2023-02-19T14:37:15;100943.55;;;8.93;49.67
26436;BME280;15351;52.408;16.826;2023-02-19T14:39:43;100948.92;;;8.86;49.58
26436;BME280;15351;52.408;16.826;2023-02-19T14:42:16;100952.02;;;8.82;49.57
26436;BME280;15351;52.408;16.826;2023-02-19T14:44:54;100952.41;;;8.78;49.30
26436;BME280;15351;52.408;16.826;2023-02-19T14:47:32;100957.35;;;8.70;49.50
26436;BME280;15351;52.408;16.826;2023-02-19T14:50:27;100961.81;;;8.65;49.75
26436;BME280;15351;52.408;16.826;2023-02-19T14:53:18;100960.11;;;8.61;49.87
26436;BME280;15351;52.408;16.826;2023-02-19T14:55:49;100966.66;;;8.56;49.93
26436;BME280;15351;52.408;16.826;2023-02-19T14:58:28;100963.20;;;8.54;50.10
26436;BME280;15351;52.408;16.826;2023-02-19T15:00:59;100967.58;;;8.51;49.81
26436;BME280;15351;52.408;16.826;2023-02-19T15:03:32;100962.82;;;8.47;49.54
26436;BME280;15351;52.408;16.826;2023-02-19T15:06:04;100980.38;;;8.41;49.30
26436;BME280;15351;52.408;16.826;2023-02-19T15:08:41;100983.13;;;8.36;49.55
26436;BME280;15351;52.408;16.826;2023-02-19T15:11:21;100991.84;;;8.29;49.84
26436;BME280;15351;52.408;16.826;2023-02-19T15:14:00;100995.10;;;8.25;50.00
26436;BME280;15351;52.408;16.826;2023-02-19T15:16:32;101004.95;;;8.20;50.13
26436;BME280;15351;52.408;16.826;2023-02-19T15:19:25;101010.99;;;8.13;50.68
26436;BME280;15351;52.408;16.826;2023-02-19T15:22:15;101015.20;;;8.07;50.96
26436;BME280;15351;52.408;16.826;2023-02-19T15:25:17;101019.25;;;8.02;50.94